Stations météo

Publicité
Bourg-St-Maurice, France (7497): Température de l'air & dewpoint: 19.09.2018 16:00:00 - 25.09.2018 16:00:00 (CEST)Bourg-St-Maurice, France (7497): Température de l'air 5cm: 19.09.2018 16:00:00 - 25.09.2018 16:00:00 (CEST)Bourg-St-Maurice, France (7497): Température de l'air -20cm & Température de l'air -100cm: 19.09.2018 16:00:00 - 25.09.2018 16:00:00 (CEST)Bourg-St-Maurice, France (7497): Vitesse du vent & gusts: 19.09.2018 16:00:00 - 25.09.2018 16:00:00 (CEST)Bourg-St-Maurice, France (7497): Direction du vent: 19.09.2018 16:00:00 - 25.09.2018 16:00:00 (CEST)Bourg-St-Maurice, France (7497): Ensoleillement: 19.09.2018 16:00:00 - 25.09.2018 16:00:00 (CEST)Bourg-St-Maurice, France (7497): Quantités de précipitations: 19.09.2018 16:00:00 - 25.09.2018 16:00:00 (CEST)
Date & Time tt [°C] td [°C] tt 5cm [°C] tt -20cm [°C] tt -100cm [°C] ff [km/h] ff [knt] fx [km/h] fx [knt] dd sd [min] rr [mm]
25.09.2018 16:00:00 21,6 8,8 25,0 19,3 19,9 10 6 22 12 SSW 60 0,0
25.09.2018 15:00:00 21,6 7,8 21,2 19,1 19,9 7 4 17 9 SSW 42 0,0
25.09.2018 14:00:00 19,6 8,0 21,2 18,9 19,9 6 3 16 8 SSW 47 0,0
25.09.2018 13:00:00 18,8 7,9 18,7 18,8 19,9 5 3 9 5 S 36 0,0
25.09.2018 12:00:00 15,4 8,2 16,9 18,8 19,9 3 2 11 6 S 27 0,0
25.09.2018 11:00:00 12,5 7,8 13,0 18,9 19,9 3 2 11 6 S 13 0,0
25.09.2018 10:00:00 10,8 7,5 11,7 19,0 19,9 4 2 10 6 S 12 0,0
25.09.2018 09:00:00 9,2 7,1 8,7 19,1 19,9 2 1 4 2 SSW 0 0,0
25.09.2018 08:00:00 8,7 7,0 7,6 19,3 19,9 0 0 4 2 N 0 0,0
25.09.2018 07:00:00 8,7 6,8 7,8 19,4 19,9 0 0 5 3 N 0 0,0
25.09.2018 06:00:00 8,7 6,8 7,8 19,6 19,9 0 0 5 3 N 0 0,0
25.09.2018 05:00:00 8,2 6,5 6,8 19,8 19,9 0 0 5 3 N 0 0,0
25.09.2018 04:00:00 8,4 6,4 6,9 20,0 19,9 3 1 7 4 WNW 0 0,0
25.09.2018 03:00:00 9,2 6,6 7,7 20,2 19,9 2 1 8 4 WSW 0 0,0
25.09.2018 02:00:00 9,9 6,8 8,5 20,3 19,9 0 0 9 5 N 0 0,0
25.09.2018 01:00:00 10,9 6,6 10,1 20,4 19,9 4 2 10 6 SW 0 0,0
25.09.2018 00:00:00 11,6 7,1 10,4 20,6 19,9 3 1 9 5 SW 0 0,0
24.09.2018 23:00:00 12,4 6,9 11,8 20,7 19,9 0 0 8 4 N 0 0,0
24.09.2018 22:00:00 12,7 6,9 12,2 20,8 19,9 3 2 16 8 SW 0 0,0
24.09.2018 21:00:00 13,2 7,0 12,6 20,9 19,9 5 3 16 9 SW 0 0,0
24.09.2018 20:00:00 14,1 6,9 13,4 21,0 19,9 6 3 18 10 S 4 0,0
24.09.2018 19:00:00 15,3 7,3 14,9 21,1 19,9 5 3 24 13 S 12 0,0
24.09.2018 18:00:00 17,2 7,5 17,2 21,1 19,9 9 5 24 13 S 53 0,0
24.09.2018 17:00:00 19,1 7,8 20,7 21,0 19,9 9 5 29 16 S 60 0,0
24.09.2018 16:00:00 19,1 7,5 22,5 20,9 19,9 12 7 28 15 S 60 0,0
24.09.2018 15:00:00 19,2 7,6 23,0 20,7 19,9 13 7 31 17 SSE 60 0,0
24.09.2018 14:00:00 18,8 7,6 22,5 20,6 19,9 11 6 28 15 S 60 0,0
24.09.2018 13:00:00 18,3 7,7 22,0 20,5 19,9 11 6 28 15 S 60 0,0
24.09.2018 12:00:00 17,3 7,9 21,0 20,4 19,9 9 5 23 12 S 60 0,0
24.09.2018 11:00:00 16,2 9,1 17,9 20,5 19,9 7 4 15 8 S 58 0,0
24.09.2018 10:00:00 12,9 9,3 12,4 20,6 19,9 3 2 10 6 S 4 0,0
24.09.2018 09:00:00 12,0 10,1 11,1 20,8 19,9 5 3 13 7 SSW 0 0,0
24.09.2018 08:00:00 11,4 9,6 10,2 21,0 19,9 0 0 14 7 N 0 0,0
24.09.2018 07:00:00 11,7 9,9 10,4 21,2 19,9 5 3 18 10 W 0 0,0
24.09.2018 06:00:00 12,7 10,4 11,6 21,3 19,9 8 4 19 10 W 0 0,0
24.09.2018 05:00:00 14,1 10,9 13,0 21,5 19,9 5 3 15 8 WSW 0 0,0
24.09.2018 04:00:00 15,3 11,3 12,9 21,5 19,9 4 2 20 11 E 0 0,2
24.09.2018 03:00:00 16,4 12,4 13,9 21,6 19,9 7 4 18 10 E 0 0,2
24.09.2018 02:00:00 16,8 15,3 15,7 21,7 19,9 4 2 15 8 NW 0 0,4
24.09.2018 01:00:00 17,0 15,7 16,0 21,8 19,9 9 5 21 12 SW 0 0,2
24.09.2018 00:00:00 17,2 15,9 16,3 21,8 19,9 4 2 13 7 WSW 0 1,2
23.09.2018 23:00:00 17,5 16,0 16,3 21,9 19,9 2 1 9 5 WSW 0 0,6
23.09.2018 22:00:00 18,2 15,4 16,3 21,9 19,9 2 1 19 10 WNW 0 0,8
23.09.2018 21:00:00 21,1 14,5 16,5 21,9 19,9 9 5 22 12 NW 0 0,6
23.09.2018 20:00:00 23,5 12,2 22,7 21,9 19,9 9 5 32 17 SW 0 0,0
23.09.2018 19:00:00 24,8 11,7 24,0 21,8 19,9 13 7 28 15 SW 0 0,0
23.09.2018 18:00:00 27,3 10,9 26,6 21,7 19,9 9 5 34 18 SW 38 0,0
23.09.2018 17:00:00 27,9 11,0 28,0 21,5 19,9 13 7 28 15 SW 25 0,0
23.09.2018 16:00:00 30,1 13,0 34,0 21,2 19,9 10 6 24 13 SSW 60 0,0
23.09.2018 15:00:00 29,5 12,4 33,8 20,9 19,9 6 3 14 8 SSW 60 0,0
23.09.2018 14:00:00 28,4 11,9 32,2 20,6 19,9 3 2 14 8 SSW 60 0,0
23.09.2018 13:00:00 26,6 11,9 30,5 20,3 19,9 5 3 13 7 S 60 0,0
23.09.2018 12:00:00 24,2 10,5 27,7 20,2 19,9 4 2 9 5 SSE 60 0,0
23.09.2018 11:00:00 21,4 11,4 26,5 20,2 19,9 4 2 8 4 S 60 0,0
23.09.2018 10:00:00 18,8 11,1 22,2 20,3 19,9 3 2 9 5 ENE 60 0,0
23.09.2018 09:00:00 14,6 11,2 13,1 20,4 19,9 4 2 7 4 NE 14 0,0
23.09.2018 08:00:00 13,2 10,6 11,3 20,6 19,9 0 0 4 2 N 0 0,0
23.09.2018 07:00:00 13,8 10,4 11,9 20,7 19,9 4 2 8 4 W 0 0,0
23.09.2018 06:00:00 15,2 11,6 13,7 20,7 19,9 3 1 6 3 N 0 0,0
23.09.2018 05:00:00 15,5 11,7 14,7 20,8 19,9 0 0 6 3 N 0 0,0
23.09.2018 04:00:00 15,6 11,4 14,8 20,9 19,9 0 0 5 3 N 0 0,0
23.09.2018 03:00:00 15,7 11,5 15,0 21,0 19,9 4 2 7 4 SSW 0 0,0
23.09.2018 02:00:00 15,9 11,1 15,1 21,1 19,9 2 1 6 4 NE 0 0,0
23.09.2018 01:00:00 16,0 11,0 15,4 21,2 19,9 3 1 5 3 W 0 0,0
23.09.2018 00:00:00 16,4 11,1 15,7 21,3 19,9 2 1 10 5 SW 0 0,0
22.09.2018 23:00:00 16,6 10,7 15,8 21,4 19,9 2 1 6 3 ESE 0 0,0
22.09.2018 22:00:00 17,0 11,0 16,4 21,4 19,9 3 1 6 3 W 0 0,0
22.09.2018 21:00:00 17,6 10,5 16,8 21,5 20,0 3 2 8 4 ESE 0 0,0
22.09.2018 20:00:00 18,5 10,8 17,6 21,4 19,9 0 0 8 5 N 0 0,0
22.09.2018 19:00:00 19,9 10,0 19,3 21,4 19,9 0 0 8 4 N 11 0,0
22.09.2018 18:00:00 20,6 9,5 20,6 21,3 19,9 6 3 18 10 SW 12 0,0
22.09.2018 17:00:00 21,7 9,9 22,4 21,2 19,9 8 5 23 12 SSW 35 0,0
22.09.2018 16:00:00 23,6 10,3 26,8 21,0 19,9 9 5 22 12 SSW 60 0,0
22.09.2018 15:00:00 23,6 10,3 27,5 20,7 19,9 9 5 21 11 S 60 0,0
22.09.2018 14:00:00 22,7 8,8 25,4 20,5 19,9 5 3 14 7 S 56 0,0
22.09.2018 13:00:00 21,1 10,0 23,9 20,3 19,9 6 3 16 9 SSW 60 0,0
22.09.2018 12:00:00 18,6 12,6 19,3 20,3 19,9 7 4 17 9 SSW 47 0,0
22.09.2018 11:00:00 17,1 12,6 19,8 20,3 19,9 6 4 15 8 S 60 0,0
22.09.2018 10:00:00 14,0 12,0 13,5 20,4 19,9 3 2 10 5 S 3 0,0
22.09.2018 09:00:00 13,1 12,0 12,8 20,5 19,9 5 3 9 5 SSW 0 0,0
22.09.2018 08:00:00 13,0 11,9 12,7 20,6 19,9 3 2 8 4 SSW 0 0,0
22.09.2018 07:00:00 13,2 12,3 12,6 20,7 19,9 4 2 9 5 SSW 0 0,0
22.09.2018 06:00:00 13,3 12,4 12,7 20,8 19,9 3 2 11 6 SSW 0 0,0
22.09.2018 05:00:00 13,5 12,6 12,8 20,9 19,9 4 2 13 7 WSW 0 0,0
22.09.2018 04:00:00 13,9 12,8 13,0 21,0 19,9 6 4 15 8 SW 0 0,0
22.09.2018 03:00:00 14,8 13,8 14,1 21,1 19,9 4 2 13 7 SSW 0 0,0
22.09.2018 02:00:00 15,2 14,1 14,4 21,2 20,0 7 4 14 8 SW 0 0,0
22.09.2018 01:00:00 15,5 14,5 14,8 21,3 19,9 5 3 10 5 SSW 0 -
22.09.2018 00:00:00 15,7 14,9 14,9 21,4 20,0 4 2 11 6 SW 0 0,0
21.09.2018 23:00:00 15,8 14,8 15,0 21,4 19,9 3 2 7 4 SSW 0 0,0
21.09.2018 22:00:00 15,9 14,9 15,1 21,5 19,9 2 1 5 3 S 0 0,0
21.09.2018 21:00:00 16,2 15,1 15,2 21,5 19,9 0 0 5 3 N 0 0,4
21.09.2018 20:00:00 16,5 15,2 15,2 21,5 19,9 3 1 12 6 WSW 0 0,8
21.09.2018 19:00:00 17,2 14,8 15,4 21,5 19,9 5 3 19 10 W 0 1,2
21.09.2018 18:00:00 22,4 11,5 15,8 21,4 19,9 12 7 24 13 W 0 0,4
21.09.2018 17:00:00 25,3 9,2 25,1 21,2 19,9 6 3 22 12 WSW 0 0,0
21.09.2018 16:00:00 26,9 8,3 27,6 21,0 19,9 10 5 32 18 S 26 0,0
21.09.2018 15:00:00 26,8 8,7 26,5 20,8 19,9 11 6 29 16 S 7 0,0
21.09.2018 14:00:00 27,4 6,7 27,9 20,5 19,9 11 6 28 15 SSW 38 0,0
21.09.2018 13:00:00 27,4 7,8 31,0 20,4 19,9 7 4 16 9 S 60 0,0
21.09.2018 12:00:00 23,8 10,5 22,4 20,3 19,9 5 3 13 7 ESE 44 0,0
21.09.2018 11:00:00 20,4 10,8 23,2 20,3 19,9 3 2 7 4 NE 46 0,0
21.09.2018 10:00:00 17,3 11,6 18,3 20,4 19,9 0 0 5 3 N 19 0,0
21.09.2018 09:00:00 14,8 10,4 12,8 20,5 19,9 0 0 7 4 N 17 0,0
21.09.2018 08:00:00 13,8 10,2 10,6 20,7 19,9 5 3 9 5 NNW 0 0,0
21.09.2018 07:00:00 13,0 10,2 10,8 20,8 19,9 4 2 5 3 NNW 0 0,0
21.09.2018 06:00:00 13,8 10,4 11,4 20,9 19,9 0 0 5 3 N 0 0,0
21.09.2018 05:00:00 14,3 10,5 11,7 21,1 19,9 2 1 5 3 NW 0 0,0
21.09.2018 04:00:00 15,0 11,0 12,5 21,2 19,9 0 0 5 3 N 0 0,0
21.09.2018 03:00:00 15,4 11,2 13,0 21,3 19,9 4 2 6 3 N 0 0,0
21.09.2018 02:00:00 15,8 11,0 13,3 21,4 19,9 0 0 5 3 N 0 0,0
21.09.2018 01:00:00 16,5 10,8 13,9 21,5 19,9 2 1 4 2 N 0 0,0
21.09.2018 00:00:00 17,0 11,0 14,5 21,6 19,9 3 2 5 3 NNW 0 0,0
20.09.2018 23:00:00 17,5 11,1 15,1 21,7 20,0 2 1 5 3 NW 0 0,0
20.09.2018 22:00:00 18,4 10,7 15,8 21,7 19,9 3 2 7 4 N 0 0,0
20.09.2018 21:00:00 19,8 10,5 16,9 21,8 19,9 3 2 12 7 NNW 0 0,0
20.09.2018 20:00:00 22,1 9,9 20,6 21,8 19,9 9 5 17 9 NW 0 0,0
20.09.2018 19:00:00 23,6 9,9 22,3 21,7 19,9 7 4 14 7 WNW 5 0,0
20.09.2018 18:00:00 25,7 10,7 25,6 21,6 19,9 8 5 21 11 W 60 0,0
20.09.2018 17:00:00 29,4 7,9 31,1 21,4 19,9 9 5 18 10 S 60 0,0
20.09.2018 16:00:00 30,1 8,5 34,0 21,1 19,9 7 4 17 9 S 60 0,0
20.09.2018 15:00:00 29,6 8,1 33,7 20,8 19,9 6 3 16 9 S 60 0,0
20.09.2018 14:00:00 28,4 10,1 31,9 20,5 19,9 5 3 14 8 S 60 0,0
20.09.2018 13:00:00 27,0 11,1 31,2 20,3 19,9 5 3 13 7 S 60 0,0
20.09.2018 12:00:00 24,0 9,9 28,5 20,1 19,9 3 1 8 4 ENE 60 0,0
20.09.2018 11:00:00 21,3 10,1 25,4 20,1 19,9 2 1 7 4 ENE 60 0,0
20.09.2018 10:00:00 18,3 11,4 22,3 20,2 19,9 2 1 6 3 ESE 60 0,0
20.09.2018 09:00:00 14,0 10,0 11,1 20,4 19,9 3 1 5 3 NE 19 0,0
20.09.2018 08:00:00 12,2 9,6 9,6 20,6 19,9 3 2 4 2 N 0 0,0
20.09.2018 07:00:00 12,5 9,5 10,0 20,7 19,9 0 0 5 3 N 0 0,0
20.09.2018 06:00:00 13,4 9,8 10,8 20,9 19,9 0 0 6 3 N 0 0,0
20.09.2018 05:00:00 13,4 10,2 10,6 21,0 19,9 3 1 5 3 N 0 0,0
20.09.2018 04:00:00 13,8 10,2 11,5 21,2 19,9 0 0 6 3 N 0 0,0
20.09.2018 03:00:00 14,4 10,2 11,5 21,3 19,9 2 1 6 3 N 0 0,0
20.09.2018 02:00:00 15,2 10,4 12,2 21,4 19,9 2 1 5 3 NW 0 0,0
20.09.2018 01:00:00 16,0 10,7 13,2 21,5 19,9 2 1 7 4 N 0 0,0
20.09.2018 00:00:00 16,6 10,7 13,7 21,6 19,9 3 2 6 4 N 0 0,0
19.09.2018 23:00:00 17,4 10,7 14,5 21,7 19,9 3 2 6 3 NNW 0 0,0
19.09.2018 22:00:00 18,8 10,6 15,6 21,8 19,9 3 1 10 5 NNE 0 0,0
19.09.2018 21:00:00 20,6 10,4 18,5 21,8 19,9 5 3 12 6 WNW 0 0,0
19.09.2018 20:00:00 21,2 10,9 19,3 21,8 19,9 6 3 9 5 W 0 0,0
19.09.2018 19:00:00 24,0 10,6 22,4 21,8 19,9 4 2 26 14 WNW 6 0,0
19.09.2018 18:00:00 27,2 9,5 27,3 21,6 19,9 4 2 21 11 ESE 57 0,0
19.09.2018 17:00:00 26,1 9,9 24,9 21,5 19,9 4 2 20 11 NNW 12 0,0
19.09.2018 16:00:00 27,3 10,1 26,8 21,2 20,0 7 4 25 13 S 37 0,0

tt = Température de l'air
td = dewpoint
tt 5cm = Température de l'air 5cm
tt -20cm = Température de l'air -20cm
tt -100cm = Température de l'air -100cm
ff = Vitesse du vent
fx = gusts
dd = Direction du vent
sd = Ensoleillement
rr = Quantités de précipitations

stations d'obs. à proximité